ěÝzenÝ letovÚho provozu ╚eskÚ republiky
Letiste: LKPR Aktualizace: 29.07.2021 13:00:29  UTC
 METAR LKPR 29.07. 13:00 ...
METAR LKPR 291300Z 24013KT 210V270 CAVOK 25/10 Q1014 NOSIG RMK REG QNH 1011=
 TAF LKPR 29.07. 11:00 ...
TAF LKPR 291100Z 2912/3018 22008KT CAVOK      TEMPO 2912/2918 24012G22KT 9999 SCT040      BECMG 3000/3002 22006KT=